createdAt,value
2023-09-25T00:01:34.782Z,0.60
2023-09-25T00:04:01.881Z,0.40
2023-09-25T00:06:30.020Z,0.45
2023-09-25T00:08:56.816Z,0.40
2023-09-25T00:11:23.676Z,0.52
2023-09-25T00:13:50.372Z,0.60
2023-09-25T00:16:19.956Z,0.43
2023-09-25T00:18:47.475Z,0.50
2023-09-25T00:21:14.576Z,0.43
2023-09-25T00:23:41.550Z,0.75
2023-09-25T00:26:08.954Z,0.40
2023-09-25T00:28:54.349Z,0.40
2023-09-25T00:31:22.727Z,0.70
2023-09-25T00:33:49.523Z,0.50
2023-09-25T00:36:16.617Z,0.52
2023-09-25T00:38:43.549Z,1.00
2023-09-25T00:41:10.420Z,0.47
2023-09-25T00:43:37.198Z,0.70
2023-09-25T00:46:04.434Z,0.75
2023-09-25T00:48:31.760Z,0.57
2023-09-25T00:51:02.588Z,0.17
2023-09-25T00:53:30.824Z,0.50
2023-09-25T00:55:58.056Z,0.50
2023-09-25T00:58:26.052Z,0.38
2023-09-25T01:00:54.088Z,0.50
2023-09-25T01:03:21.047Z,0.63
2023-09-25T01:05:48.520Z,0.50
2023-09-25T01:08:15.218Z,0.60
2023-09-25T01:10:42.869Z,0.77
2023-09-25T01:13:11.477Z,0.63
2023-09-25T01:15:39.798Z,0.40
2023-09-25T01:18:07.197Z,0.47
2023-09-25T01:20:34.053Z,0.70
2023-09-25T01:23:01.084Z,0.40
2023-09-25T01:25:27.802Z,0.30
2023-09-25T01:27:56.119Z,0.50
2023-09-25T01:30:22.875Z,0.50
2023-09-25T01:32:51.741Z,0.47
2023-09-25T01:35:24.895Z,0.47
2023-09-25T01:37:56.477Z,0.60
2023-09-25T01:40:23.180Z,0.50
2023-09-25T01:42:49.984Z,0.55
2023-09-25T01:45:19.100Z,0.50
2023-09-25T01:47:54.134Z,0.40
2023-09-25T01:50:23.281Z,0.52
2023-09-25T01:52:56.858Z,0.57
2023-09-25T01:55:23.709Z,0.45
2023-09-25T01:57:50.343Z,0.88
2023-09-25T02:00:20.017Z,0.63
2023-09-25T02:02:47.932Z,0.40
2023-09-25T02:05:15.047Z,0.35
2023-09-25T02:07:42.166Z,0.40
2023-09-25T02:10:09.565Z,0.60
2023-09-25T02:12:36.343Z,0.55
2023-09-25T02:15:05.803Z,0.82
2023-09-25T02:17:33.853Z,1.03
2023-09-25T02:20:13.669Z,0.60
2023-09-25T02:22:41.480Z,0.40
2023-09-25T02:25:09.834Z,0.50
2023-09-25T02:27:37.603Z,0.30
2023-09-25T02:30:04.841Z,0.50
2023-09-25T02:32:31.687Z,0.40
2023-09-25T02:34:58.411Z,0.40
2023-09-25T02:37:25.198Z,0.47
2023-09-25T02:39:51.848Z,0.50
2023-09-25T02:42:18.719Z,0.43
2023-09-25T02:44:45.437Z,0.52
2023-09-25T02:47:12.214Z,0.57
2023-09-25T02:49:39.957Z,0.25
2023-09-25T02:52:07.061Z,0.57
2023-09-25T02:54:33.763Z,0.45
2023-09-25T02:57:00.492Z,0.40
2023-09-25T02:59:27.238Z,0.47
2023-09-25T03:01:54.695Z,1.08
2023-09-25T03:04:22.474Z,0.52
2023-09-25T03:06:49.261Z,0.70
2023-09-25T03:09:16.012Z,0.60
2023-09-25T03:11:42.744Z,0.40
2023-09-25T03:14:09.419Z,0.50
2023-09-25T03:16:36.138Z,0.70
2023-09-25T03:19:03.298Z,0.50
2023-09-25T03:21:30.441Z,0.50
2023-09-25T03:23:57.238Z,0.50
2023-09-25T03:26:23.923Z,0.50
2023-09-25T03:28:51.024Z,0.50
2023-09-25T03:31:18.113Z,0.50
2023-09-25T03:33:46.201Z,1.45
2023-09-25T03:36:13.422Z,0.47
2023-09-25T03:38:40.274Z,0.50
2023-09-25T03:41:07.044Z,0.90
2023-09-25T03:43:33.771Z,0.45
2023-09-25T03:46:02.264Z,0.70
2023-09-25T03:48:29.585Z,0.50
2023-09-25T03:50:56.365Z,0.57
2023-09-25T03:53:23.121Z,0.30
2023-09-25T03:55:49.805Z,0.35
2023-09-25T03:58:16.633Z,0.50
2023-09-25T04:00:43.473Z,0.40
2023-09-25T04:03:10.518Z,0.38
2023-09-25T04:05:37.397Z,0.75
2023-09-25T04:08:05.244Z,0.30
2023-09-25T04:10:32.013Z,1.08
2023-09-25T04:12:59.492Z,0.20
2023-09-25T04:15:26.440Z,0.40
2023-09-25T04:17:58.762Z,0.40
2023-09-25T04:20:25.905Z,0.28
2023-09-25T04:22:54.042Z,0.40
2023-09-25T04:25:21.172Z,0.40
2023-09-25T04:27:49.438Z,0.40
2023-09-25T04:30:16.811Z,0.40
2023-09-25T04:32:44.378Z,0.45
2023-09-25T04:35:13.482Z,0.35
2023-09-25T04:37:43.687Z,0.20
2023-09-25T04:40:23.825Z,0.40
2023-09-25T04:42:51.434Z,0.50
2023-09-25T04:45:20.035Z,1.20
2023-09-25T04:47:53.845Z,1.48
2023-09-25T04:50:22.101Z,1.30
2023-09-25T04:52:49.782Z,2.13
2023-09-25T04:55:16.942Z,1.70
2023-09-25T04:57:46.486Z,1.60
2023-09-25T05:00:28.298Z,1.35
2023-09-25T05:02:56.852Z,1.13
2023-09-25T05:05:24.120Z,0.90
2023-09-25T05:07:51.743Z,0.30
2023-09-25T05:10:26.318Z,0.93
2023-09-25T05:12:54.462Z,0.60
2023-09-25T05:15:21.669Z,0.45
2023-09-25T05:17:49.191Z,0.90
2023-09-25T05:20:21.177Z,0.50
2023-09-25T05:22:53.071Z,0.63
2023-09-25T05:25:21.268Z,0.77
2023-09-25T05:27:50.198Z,0.50
2023-09-25T05:30:18.884Z,0.60
2023-09-25T05:32:50.016Z,0.50
2023-09-25T05:35:17.791Z,0.40
2023-09-25T05:37:49.522Z,0.60
2023-09-25T05:40:17.461Z,0.40
2023-09-25T05:42:45.353Z,0.50
2023-09-25T05:45:16.432Z,0.40
2023-09-25T05:47:44.659Z,0.70
2023-09-25T05:50:12.792Z,0.47
2023-09-25T05:52:40.648Z,0.80
2023-09-25T05:55:08.102Z,0.75
2023-09-25T05:57:35.725Z,0.70
2023-09-25T06:00:10.027Z,0.50
2023-09-25T06:02:37.466Z,0.45
2023-09-25T06:05:04.864Z,0.90
2023-09-25T06:07:31.806Z,0.75
2023-09-25T06:09:58.648Z,0.60
2023-09-25T06:12:25.394Z,0.63
2023-09-25T06:14:52.132Z,1.10
2023-09-25T06:17:19.161Z,0.68
2023-09-25T06:19:45.757Z,0.60
2023-09-25T06:22:12.554Z,0.70
2023-09-25T06:24:39.343Z,0.70
2023-09-25T06:27:06.516Z,0.77
2023-09-25T06:29:33.176Z,0.40
2023-09-25T06:32:02.323Z,0.85
2023-09-25T06:34:29.553Z,1.08
2023-09-25T06:36:56.710Z,0.85
2023-09-25T06:39:24.548Z,0.65
2023-09-25T06:41:52.182Z,0.65
2023-09-25T06:44:20.590Z,0.60
2023-09-25T06:46:47.861Z,0.70
2023-09-25T06:49:14.785Z,2.08
2023-09-25T06:51:41.843Z,1.83
2023-09-25T06:54:10.324Z,1.33
2023-09-25T06:56:37.414Z,0.80
2023-09-25T06:59:04.458Z,0.52
2023-09-25T07:01:31.629Z,0.60
2023-09-25T07:03:58.857Z,0.55
2023-09-25T07:06:26.249Z,0.70
2023-09-25T07:08:53.185Z,1.30
2023-09-25T07:11:20.256Z,0.90
2023-09-25T07:13:46.982Z,1.13
2023-09-25T07:16:13.847Z,1.20
2023-09-25T07:18:40.647Z,1.10
2023-09-25T07:21:07.649Z,0.70
2023-09-25T07:23:34.337Z,0.80
2023-09-25T07:26:08.799Z,1.08
2023-09-25T07:28:38.515Z,0.80
2023-09-25T07:31:06.941Z,0.70
2023-09-25T07:33:35.769Z,0.63
2023-09-25T07:36:05.701Z,0.70
2023-09-25T07:41:01.976Z,1.30
2023-09-25T07:43:56.784Z,1.63
2023-09-25T07:46:20.617Z,2.40
2023-09-25T07:48:48.763Z,3.37
2023-09-25T07:51:15.848Z,3.85
2023-09-25T07:53:46.206Z,3.70
2023-09-25T07:56:13.300Z,6.85
2023-09-25T07:58:41.272Z,6.10
2023-09-25T08:01:10.079Z,8.45
2023-09-25T08:03:39.384Z,9.85
2023-09-25T08:06:07.184Z,10.43
2023-09-25T08:08:37.093Z,6.88
2023-09-25T08:11:04.064Z,5.45
2023-09-25T08:13:31.221Z,8.43
2023-09-25T08:16:08.020Z,5.65
2023-09-25T08:18:35.836Z,5.40
2023-09-25T08:21:02.537Z,6.10
2023-09-25T08:23:30.110Z,4.97
2023-09-25T08:25:57.077Z,6.20
2023-09-25T08:28:25.152Z,9.32
2023-09-25T08:30:51.905Z,4.32
2023-09-25T08:33:18.640Z,3.83
2023-09-25T08:35:45.362Z,5.85
2023-09-25T08:38:12.052Z,4.22
2023-09-25T08:40:45.666Z,4.03
2023-09-25T08:43:20.034Z,2.55
2023-09-25T08:45:49.763Z,3.05
2023-09-25T08:48:18.770Z,2.90
2023-09-25T08:50:46.868Z,2.25
2023-09-25T08:53:13.734Z,1.52
2023-09-25T08:55:40.583Z,1.58
2023-09-25T08:58:10.582Z,2.15
2023-09-25T09:00:39.510Z,2.97
2023-09-25T09:03:06.840Z,1.90
2023-09-25T09:05:33.798Z,1.77
2023-09-25T09:08:02.717Z,0.90
2023-09-25T09:10:39.669Z,0.95
2023-09-25T09:13:12.868Z,0.80
2023-09-25T09:15:41.597Z,1.00
2023-09-25T09:18:28.326Z,1.45
2023-09-25T09:20:56.513Z,0.90
2023-09-25T09:23:41.123Z,0.80
2023-09-25T09:26:15.243Z,0.80
2023-09-25T09:28:43.774Z,0.98
2023-09-25T09:31:12.056Z,0.73
2023-09-25T09:33:42.521Z,1.38
2023-09-25T09:36:16.558Z,0.98
2023-09-25T09:38:44.900Z,0.80
2023-09-25T09:41:11.591Z,0.63
2023-09-25T09:43:38.613Z,0.57
2023-09-25T09:46:06.069Z,0.98
2023-09-25T09:48:33.411Z,0.77
2023-09-25T09:51:03.437Z,0.68
2023-09-25T09:53:35.038Z,0.70
2023-09-25T09:56:02.548Z,0.60
2023-09-25T09:58:29.651Z,0.40
2023-09-25T10:00:57.721Z,0.70
2023-09-25T10:03:25.832Z,0.60
2023-09-25T10:05:54.292Z,0.40
2023-09-25T10:08:22.519Z,0.60
2023-09-25T10:10:50.549Z,0.50
2023-09-25T10:13:29.770Z,1.00
2023-09-25T10:16:02.339Z,0.65
2023-09-25T10:18:32.435Z,0.55
2023-09-25T10:21:09.548Z,0.70
2023-09-25T10:23:38.571Z,0.70
2023-09-25T10:26:05.235Z,0.60
2023-09-25T10:28:39.454Z,0.45
2023-09-25T10:31:20.365Z,0.60
2023-09-25T10:34:05.922Z,0.60
2023-09-25T10:36:38.151Z,0.65
2023-09-25T10:39:18.112Z,0.55
2023-09-25T10:41:48.310Z,0.50
2023-09-25T10:44:17.239Z,0.43
2023-09-25T10:46:46.108Z,0.50
2023-09-25T10:49:12.977Z,0.45
2023-09-25T10:51:39.835Z,0.52
2023-09-25T10:54:06.743Z,0.40
2023-09-25T10:56:33.934Z,0.68
2023-09-25T10:59:01.794Z,0.50
2023-09-25T11:01:30.224Z,0.55
2023-09-25T11:04:00.717Z,0.43
2023-09-25T11:06:28.649Z,0.65
2023-09-25T11:09:14.698Z,0.50
2023-09-25T11:11:42.119Z,1.10
2023-09-25T11:14:09.295Z,0.65
2023-09-25T11:16:36.103Z,0.50
2023-09-25T11:19:13.458Z,0.43
2023-09-25T11:21:41.413Z,0.50
2023-09-25T11:24:11.835Z,0.65
2023-09-25T11:29:12.895Z,0.57
2023-09-25T11:34:10.808Z,0.88
2023-09-25T11:36:47.022Z,0.40
2023-09-25T11:39:33.536Z,0.35
2023-09-25T11:42:00.507Z,0.57
2023-09-25T11:44:27.181Z,0.55
2023-09-25T11:46:54.052Z,0.50
2023-09-25T11:49:20.928Z,0.20
2023-09-25T11:51:48.870Z,0.70
2023-09-25T11:54:15.644Z,0.45
2023-09-25T11:56:42.959Z,0.30
2023-09-25T11:59:12.784Z,0.40
2023-09-25T12:01:41.245Z,0.40
2023-09-25T12:04:08.279Z,0.70
2023-09-25T12:06:36.125Z,0.50
2023-09-25T12:09:12.220Z,0.60
2023-09-25T12:11:43.082Z,0.80
2023-09-25T12:14:09.998Z,0.52
2023-09-25T12:16:37.058Z,0.65
2023-09-25T12:19:04.080Z,0.40
2023-09-25T12:21:31.224Z,0.55
2023-09-25T12:23:57.991Z,0.47
2023-09-25T12:26:24.639Z,0.55
2023-09-25T12:28:51.764Z,0.68
2023-09-25T12:31:18.480Z,0.90
2023-09-25T12:33:45.375Z,0.52
2023-09-25T12:36:12.396Z,0.70
2023-09-25T12:38:41.165Z,0.43
2023-09-25T12:41:08.046Z,0.70
2023-09-25T12:43:34.877Z,0.35
2023-09-25T12:46:01.707Z,0.85
2023-09-25T12:48:28.751Z,0.45
2023-09-25T12:50:55.477Z,1.15
2023-09-25T12:53:22.802Z,1.15
2023-09-25T12:55:50.631Z,0.43
2023-09-25T12:58:17.421Z,0.60
2023-09-25T13:00:44.211Z,0.57
2023-09-25T13:03:11.391Z,0.50
2023-09-25T13:05:38.215Z,0.65
2023-09-25T13:08:05.296Z,0.70
2023-09-25T13:10:32.326Z,0.40
2023-09-25T13:12:58.985Z,0.40
2023-09-25T13:15:25.767Z,0.40
2023-09-25T13:17:53.632Z,0.60
2023-09-25T13:20:21.220Z,0.60
2023-09-25T13:22:48.368Z,0.80
2023-09-25T13:25:15.394Z,0.40
2023-09-25T13:27:49.709Z,0.60
2023-09-25T13:30:19.780Z,0.85
2023-09-25T13:32:47.025Z,1.35
2023-09-25T13:35:14.451Z,0.43
2023-09-25T13:37:41.499Z,0.88
2023-09-25T13:40:11.725Z,0.63
2023-09-25T13:42:38.548Z,0.47
2023-09-25T13:45:05.696Z,0.70
2023-09-25T13:47:32.480Z,0.60
2023-09-25T13:49:59.269Z,0.50
2023-09-25T13:52:25.955Z,0.88
2023-09-25T13:54:55.377Z,0.52
2023-09-25T13:57:22.221Z,0.50
2023-09-25T13:59:48.939Z,0.50
2023-09-25T14:02:15.738Z,0.50
2023-09-25T14:04:42.468Z,0.38
2023-09-25T14:07:10.297Z,0.60
2023-09-25T14:09:37.225Z,0.50
2023-09-25T14:12:04.328Z,0.73
2023-09-25T14:14:48.933Z,0.50
2023-09-25T14:17:15.756Z,0.68
2023-09-25T14:19:42.392Z,1.33
2023-09-25T14:22:09.084Z,0.77
2023-09-25T14:24:35.945Z,0.60
2023-09-25T14:27:02.851Z,0.63
2023-09-25T14:29:31.228Z,0.57
2023-09-25T14:31:58.553Z,0.73
2023-09-25T14:34:25.523Z,0.63
2023-09-25T14:36:52.349Z,0.73
2023-09-25T14:39:19.426Z,0.47
2023-09-25T14:41:46.563Z,0.70
2023-09-25T14:44:13.224Z,0.40
2023-09-25T14:46:39.915Z,0.60
2023-09-25T14:49:06.775Z,0.60
2023-09-25T14:51:33.563Z,0.50
2023-09-25T14:54:00.304Z,0.60
2023-09-25T14:56:27.043Z,0.80
2023-09-25T14:58:53.686Z,0.60
2023-09-25T15:01:20.416Z,0.63
2023-09-25T15:03:47.146Z,0.57
2023-09-25T15:06:14.790Z,0.57
2023-09-25T15:08:41.949Z,0.50
2023-09-25T15:11:08.700Z,0.60
2023-09-25T15:13:35.438Z,0.50
2023-09-25T15:16:02.205Z,0.70
2023-09-25T15:18:29.140Z,0.40
2023-09-25T15:21:04.160Z,0.40
2023-09-25T15:23:31.065Z,0.50
2023-09-25T15:25:57.814Z,0.50
2023-09-25T15:28:24.560Z,0.55
2023-09-25T15:30:51.212Z,0.50
2023-09-25T15:33:17.891Z,0.65
2023-09-25T15:35:44.574Z,0.60
2023-09-25T15:38:11.334Z,0.50
2023-09-25T15:40:38.998Z,0.55
2023-09-25T15:43:05.862Z,0.90
2023-09-25T15:45:35.232Z,0.50
2023-09-25T15:48:02.531Z,0.80
2023-09-25T15:50:29.737Z,0.50
2023-09-25T15:52:56.581Z,0.47
2023-09-25T15:55:23.235Z,0.60
2023-09-25T15:57:50.665Z,0.57
2023-09-25T16:00:17.350Z,0.50
2023-09-25T16:02:44.093Z,0.77
2023-09-25T16:05:10.870Z,0.57
2023-09-25T16:07:37.619Z,0.45
2023-09-25T16:10:04.727Z,0.60
2023-09-25T16:12:31.531Z,0.60
2023-09-25T16:14:59.171Z,0.40
2023-09-25T16:17:26.558Z,0.50
2023-09-25T16:19:53.287Z,0.60
2023-09-25T16:22:20.153Z,0.50
2023-09-25T16:24:46.860Z,0.75
2023-09-25T16:27:13.561Z,0.57
2023-09-25T16:29:40.302Z,0.70
2023-09-25T16:32:07.156Z,0.57
2023-09-25T16:34:33.874Z,0.50
2023-09-25T16:37:00.683Z,0.57
2023-09-25T16:39:30.430Z,0.55
2023-09-25T16:41:59.576Z,0.63
2023-09-25T16:44:27.331Z,0.40
2023-09-25T16:46:54.258Z,0.57
2023-09-25T16:49:21.221Z,0.60
2023-09-25T16:51:47.966Z,0.70
2023-09-25T16:54:15.551Z,0.70
2023-09-25T16:56:42.434Z,0.63
2023-09-25T16:59:10.033Z,0.52
2023-09-25T17:01:37.003Z,0.85
2023-09-25T17:04:04.051Z,0.30
2023-09-25T17:06:30.913Z,0.80
2023-09-25T17:08:57.726Z,0.75
2023-09-25T17:11:27.009Z,0.60
2023-09-25T17:13:53.796Z,0.77
2023-09-25T17:16:20.912Z,0.63
2023-09-25T17:18:47.991Z,0.80
2023-09-25T17:21:14.701Z,0.98
2023-09-25T17:23:41.533Z,0.70
2023-09-25T17:26:08.248Z,0.90
2023-09-25T17:28:35.142Z,0.80
2023-09-25T17:31:10.747Z,0.50
2023-09-25T17:33:38.264Z,0.60
2023-09-25T17:36:05.234Z,0.70
2023-09-25T17:38:34.303Z,0.82
2023-09-25T17:41:01.815Z,0.55
2023-09-25T17:43:31.123Z,0.82
2023-09-25T17:45:59.047Z,0.68
2023-09-25T17:48:29.083Z,0.57
2023-09-25T17:50:56.941Z,0.60
2023-09-25T17:53:23.619Z,1.02
2023-09-25T17:55:51.534Z,0.75
2023-09-25T17:58:29.586Z,0.60
2023-09-25T18:00:59.607Z,0.95
2023-09-25T18:03:27.885Z,0.45
2023-09-25T18:05:54.850Z,0.63
2023-09-25T18:08:21.604Z,0.65
2023-09-25T18:10:48.386Z,0.60
2023-09-25T18:13:17.910Z,0.70
2023-09-25T18:15:45.948Z,0.50
2023-09-25T18:18:13.053Z,0.50
2023-09-25T18:20:40.811Z,0.30
2023-09-25T18:23:07.724Z,0.70
2023-09-25T18:25:37.699Z,0.75
2023-09-25T18:28:05.388Z,0.57
2023-09-25T18:30:32.389Z,1.00
2023-09-25T18:32:59.638Z,0.68
2023-09-25T18:35:26.458Z,0.70
2023-09-25T18:37:53.244Z,0.52
2023-09-25T18:40:20.130Z,0.82
2023-09-25T18:42:46.972Z,0.80
2023-09-25T18:45:13.756Z,0.82
2023-09-25T18:47:40.474Z,0.45
2023-09-25T18:50:07.686Z,0.65
2023-09-25T18:52:36.142Z,0.63
2023-09-25T18:55:04.535Z,0.70
2023-09-25T18:57:31.390Z,0.60
2023-09-25T18:59:58.493Z,0.60
2023-09-25T19:02:25.359Z,0.70
2023-09-25T19:04:54.180Z,0.75
2023-09-25T19:07:21.440Z,0.80
2023-09-25T19:09:50.514Z,1.13
2023-09-25T19:12:20.475Z,0.80
2023-09-25T19:14:47.865Z,0.90
2023-09-25T19:17:14.646Z,0.80
2023-09-25T19:19:41.441Z,0.68
2023-09-25T19:22:10.030Z,0.70
2023-09-25T19:24:37.352Z,0.90
2023-09-25T19:27:05.284Z,0.50
2023-09-25T19:29:32.447Z,0.80
2023-09-25T19:31:59.377Z,0.82
2023-09-25T19:34:26.365Z,0.70
2023-09-25T19:36:53.155Z,0.65
2023-09-25T19:39:19.978Z,0.50
2023-09-25T19:41:46.787Z,0.70
2023-09-25T19:44:14.035Z,0.60
2023-09-25T19:46:41.067Z,0.55
2023-09-25T19:49:07.910Z,0.60
2023-09-25T19:51:39.752Z,0.85
2023-09-25T19:54:07.905Z,0.77
2023-09-25T19:56:34.632Z,0.63
2023-09-25T19:59:01.434Z,0.55
2023-09-25T20:01:29.007Z,0.60
2023-09-25T20:03:56.403Z,0.68
2023-09-25T20:06:23.443Z,0.70
2023-09-25T20:08:50.256Z,0.80
2023-09-25T20:11:17.083Z,0.80
2023-09-25T20:13:43.801Z,0.60
2023-09-25T20:16:10.886Z,0.80
2023-09-25T20:18:37.878Z,0.65
2023-09-25T20:21:04.859Z,0.88
2023-09-25T20:23:31.934Z,0.70
2023-09-25T20:25:58.686Z,0.80
2023-09-25T20:28:25.849Z,0.88
2023-09-25T20:30:52.657Z,0.60
2023-09-25T20:33:19.488Z,0.77
2023-09-25T20:35:46.187Z,0.68
2023-09-25T20:38:13.046Z,1.10
2023-09-25T20:40:39.791Z,0.60
2023-09-25T20:43:06.781Z,0.60
2023-09-25T20:45:33.529Z,0.98
2023-09-25T20:48:00.357Z,0.82
2023-09-25T20:50:28.295Z,0.88
2023-09-25T20:52:55.931Z,0.50
2023-09-25T20:55:23.425Z,0.70
2023-09-25T20:57:50.556Z,0.60
2023-09-25T21:00:17.585Z,0.70
2023-09-25T21:02:44.393Z,0.95
2023-09-25T21:05:11.608Z,0.60
2023-09-25T21:07:38.552Z,0.70
2023-09-25T21:10:05.736Z,0.75
2023-09-25T21:12:32.717Z,0.60
2023-09-25T21:14:59.648Z,0.68
2023-09-25T21:17:26.528Z,0.65
2023-09-25T21:19:53.170Z,0.60
2023-09-25T21:22:20.269Z,0.80
2023-09-25T21:24:48.827Z,0.60
2023-09-25T21:27:16.434Z,1.00
2023-09-25T21:29:43.785Z,0.50
2023-09-25T21:32:11.510Z,0.90
2023-09-25T21:34:38.339Z,0.70
2023-09-25T21:37:05.576Z,0.73
2023-09-25T21:39:32.350Z,0.50
2023-09-25T21:41:59.163Z,0.60
2023-09-25T21:44:27.111Z,0.90
2023-09-25T21:46:55.726Z,0.63
2023-09-25T21:49:22.633Z,0.50
2023-09-25T21:51:49.447Z,0.70
2023-09-25T21:54:16.145Z,0.70
2023-09-25T21:56:42.916Z,0.50
2023-09-25T21:59:10.492Z,0.70
2023-09-25T22:01:37.403Z,0.63
2023-09-25T22:04:05.579Z,0.65
2023-09-25T22:06:32.847Z,0.68
2023-09-25T22:08:59.664Z,0.90
2023-09-25T22:11:26.630Z,0.73
2023-09-25T22:13:55.464Z,0.50
2023-09-25T22:16:23.293Z,0.88
2023-09-25T22:18:50.419Z,0.82
2023-09-25T22:21:17.539Z,1.02
2023-09-25T22:23:44.972Z,0.90
2023-09-25T22:26:12.427Z,0.80
2023-09-25T22:28:44.058Z,1.15
2023-09-25T22:31:16.588Z,1.08
2023-09-25T22:33:45.067Z,0.57
2023-09-25T22:36:12.108Z,0.85
2023-09-25T22:38:38.976Z,0.70
2023-09-25T22:41:05.776Z,0.57
2023-09-25T22:43:33.418Z,0.80
2023-09-25T22:46:00.944Z,0.80
2023-09-25T22:48:28.333Z,0.70
2023-09-25T22:50:55.125Z,0.90
2023-09-25T22:53:21.821Z,0.98
2023-09-25T22:55:48.677Z,0.55
2023-09-25T22:58:15.397Z,0.57
2023-09-25T23:00:42.249Z,0.80
2023-09-25T23:03:09.126Z,0.80
2023-09-25T23:05:36.192Z,0.65
2023-09-25T23:08:03.721Z,0.70
2023-09-25T23:10:30.596Z,0.90
2023-09-25T23:12:57.734Z,0.80
2023-09-25T23:15:24.651Z,0.88
2023-09-25T23:17:51.840Z,0.75
2023-09-25T23:20:24.052Z,1.13
2023-09-25T23:22:52.871Z,0.60
2023-09-25T23:25:20.809Z,1.13
2023-09-25T23:27:48.802Z,2.08
2023-09-25T23:30:16.672Z,0.77
2023-09-25T23:32:47.265Z,0.80
2023-09-25T23:37:45.153Z,1.13
2023-09-25T23:40:16.531Z,0.90
2023-09-25T23:42:44.651Z,0.73
2023-09-25T23:45:17.290Z,0.73
2023-09-25T23:47:45.380Z,0.68
2023-09-25T23:50:12.902Z,1.13
2023-09-25T23:52:40.599Z,1.17
2023-09-25T23:55:09.022Z,0.60
2023-09-25T23:57:40.127Z,0.68
